New Melle, Missouri
Current Conditions -  °F | °C
As of 8:15 PM on Saturday 22 Nov 2014 (Local Time) from KFYG Reporting Station
Broken Clouds Broken Clouds  
Wind Chill: 54°   Ceiling: 1600
Heat Index: 54°   Visibility: 10mi
Dew Point: 50°   Wind: 6mph
Humidity: 88%   Direction: 140°SE
Pressure: 29.9"   Gusts: NA
Location:  38.71°N, 90.88°W
Report Text: KFYG 230215Z AUTO 14005KT 10SM BKN016 12/10 A2990 RMK AO2
Loading
Personal Weather Stations






























Interactive Weather Map New forecast layout! Learn more

10-Day Weather Forecast

Advertisements
Track Severe Weather on mobile